Aérodrome :
LOGIN :

S'inscrire | Disclaimer

   EN    FR    IT 

 










Légende :    VFR   VFR Marginal   IFR   IFR Intensif   IFR Très Intensif
Visi : 
Plafond : 
>= 8 km
>= 3000ft
5 à 8 km
1000 à 3000 ft
1500m à 5 km
500 à 1000 ft
800 à 1500m
200 à 500 ft
< 800m
< 200 ft
Symboles :   Orages  Brouillard  Fortes neiges  Fortes précipitations  Vent > 20 kt
SIGMETs :   Divers  Orages  Givrage  Turbulence  Onde Orograph.  Cendres Volcan.






- Altitude de l'aérodrome : 125 ft
- Code IATA : MGL


EDLN - Mönchengladbach

DERNIER METAR :
  • 291250Z 15004KT 120V180 9999 SCT020 02/M02 Q1026

METARs EXPIRÉS :
  • 291220Z 12004KT 9999 SCT018 02/M01 Q1026
  • 291150Z 12005KT 8000 BKN017 02/M01 Q1026
  • 291120Z 13004KT 9999 SCT017 02/M01 Q1026
  • 291050Z 14005KT 110V180 9999 BKN016 02/M01 Q1026
  • 291020Z 14005KT 110V190 9999 BKN015 02/M01 Q1026

TAF TAF EDLN
Valide du 29 à 12h jusqu'au 29 à 21h UTC


291100Z 2912/2921 13006KT 9999 SCT020
BECMG 2913/2916 VRB03KT



MET'MAP, la Météo Aéronautique d'un coup d'oeil ! - Copyright ORBIFLY Décembre 2007 - Disclaimer

ORBIFLY MET'MAP TEAM :

Programmation & Développement : Alexandra Zaïnal
Sur une idée originale de : Baudouin d'Aumeries
Assistance à la programmation : Marc-Olivier Méhu
Soutien technique & logistique : Manuel Goepfert

Contact : metmap@orbifly.com




SOURCES & CREDITS :

   NOAA